createdAt,value
2023-04-24T07:11:18.715Z,71.66
2023-04-24T07:13:45.728Z,72.19
2023-04-24T07:16:12.633Z,72.23
2023-04-24T07:18:40.860Z,72.65
2023-04-24T07:21:08.313Z,72.36
2023-04-24T07:23:35.175Z,72.54
2023-04-24T07:26:02.101Z,72.57
2023-04-24T07:28:32.064Z,72.72
2023-04-24T07:31:00.805Z,72.30
2023-04-24T07:33:28.065Z,72.88
2023-04-24T07:35:55.638Z,72.91
2023-04-24T07:38:42.491Z,73.14
2023-04-24T07:41:29.502Z,72.96
2023-04-24T07:44:16.439Z,72.97
2023-04-24T07:47:03.427Z,73.18
2023-04-24T07:49:50.434Z,72.93
2023-04-24T07:52:37.366Z,72.89
2023-04-24T07:55:27.242Z,72.90
2023-04-24T07:58:15.103Z,73.06
2023-04-24T08:01:02.090Z,72.50
2023-04-24T08:03:49.131Z,73.10
2023-04-24T08:06:36.348Z,72.75
2023-04-24T08:09:24.587Z,72.82
2023-04-24T08:12:12.929Z,72.73
2023-04-24T08:14:59.946Z,72.78
2023-04-24T08:17:46.880Z,72.67
2023-04-24T08:20:36.757Z,72.35
2023-04-24T08:23:23.763Z,72.64
2023-04-24T08:26:10.752Z,72.25
2023-04-24T08:28:58.123Z,72.01
2023-04-24T08:31:45.067Z,71.80
2023-04-24T08:34:32.210Z,71.90
2023-04-24T08:37:19.287Z,71.68
2023-04-24T08:40:06.249Z,72.00
2023-04-24T08:42:57.311Z,72.02
2023-04-24T08:45:45.785Z,71.75
2023-04-24T08:48:33.334Z,71.52
2023-04-24T08:51:20.955Z,71.66
2023-04-24T08:54:08.308Z,71.19
2023-04-24T08:56:58.030Z,71.23
2023-04-24T08:59:45.182Z,71.20
2023-04-24T09:02:32.549Z,71.99
2023-04-24T09:05:19.874Z,71.89
2023-04-24T09:08:13.136Z,71.01
2023-04-24T09:11:00.670Z,71.34
2023-04-24T09:13:47.758Z,71.36
2023-04-24T09:16:15.782Z,70.68
2023-04-24T09:18:43.441Z,70.54
2023-04-24T09:21:11.667Z,70.45
2023-04-24T09:23:39.728Z,70.75
2023-04-24T09:26:06.890Z,69.96
2023-04-24T09:28:36.990Z,70.56
2023-04-24T09:31:10.935Z,69.92
2023-04-24T09:33:38.533Z,70.29
2023-04-24T09:36:07.055Z,70.38
2023-04-24T09:38:38.717Z,69.74
2023-04-24T09:41:08.515Z,70.48
2023-04-24T09:43:36.801Z,70.31
2023-04-24T09:46:08.700Z,69.81
2023-04-24T09:48:37.886Z,70.83
2023-04-24T09:51:11.870Z,70.28
2023-04-24T09:53:41.082Z,70.50
2023-04-24T09:56:14.030Z,70.22
2023-04-24T09:58:41.102Z,69.35
2023-04-24T10:01:08.306Z,70.17
2023-04-24T10:03:36.702Z,69.35
2023-04-24T10:06:10.251Z,70.24
2023-04-24T10:08:38.507Z,70.01
2023-04-24T10:11:05.851Z,70.29
2023-04-24T10:13:34.011Z,69.18
2023-04-24T10:16:02.029Z,69.92
2023-04-24T10:18:30.959Z,69.77
2023-04-24T10:20:59.568Z,69.55
2023-04-24T10:23:27.001Z,69.51
2023-04-24T10:25:55.409Z,70.12
2023-04-24T10:28:43.593Z,69.91
2023-04-24T10:31:31.093Z,69.84
2023-04-24T10:34:19.614Z,68.50
2023-04-24T10:37:11.780Z,68.11
2023-04-24T10:39:58.956Z,69.28
2023-04-24T10:42:48.827Z,68.72
2023-04-24T10:45:42.770Z,67.22
2023-04-24T10:48:32.512Z,67.06
2023-04-24T10:51:19.573Z,66.92
2023-04-24T10:54:06.487Z,67.11
2023-04-24T10:56:54.233Z,67.08
2023-04-24T10:59:56.642Z,67.36
2023-04-24T11:02:58.020Z,67.49
2023-04-24T11:06:13.873Z,67.39
2023-04-24T11:09:09.189Z,66.65
2023-04-24T11:11:58.330Z,66.56
2023-04-24T11:14:47.741Z,66.29
2023-04-24T11:17:50.125Z,66.88
2023-04-24T11:20:38.989Z,66.22
2023-04-24T11:23:26.992Z,66.48
2023-04-24T11:26:31.815Z,66.17
2023-04-24T11:29:28.446Z,66.95
2023-04-24T11:32:15.427Z,65.42
2023-04-24T11:35:02.598Z,64.72
2023-04-24T11:40:50.543Z,65.75
2023-04-24T11:43:39.384Z,64.63
2023-04-24T11:46:26.615Z,64.75
2023-04-24T11:49:14.107Z,65.61
2023-04-24T11:52:01.341Z,64.96
2023-04-24T11:54:48.707Z,64.95
2023-04-24T11:57:35.853Z,63.98
2023-04-24T12:00:24.447Z,64.65
2023-04-24T12:03:12.029Z,64.71
2023-04-24T12:06:00.160Z,63.74
2023-04-24T12:08:50.211Z,63.82
2023-04-24T12:11:38.838Z,62.79
2023-04-24T12:14:32.863Z,63.48
2023-04-24T12:17:20.053Z,62.93
2023-04-24T12:20:04.586Z,63.69
2023-04-24T12:22:48.622Z,63.59
2023-04-24T12:25:17.159Z,62.72
2023-04-24T12:27:45.421Z,62.54
2023-04-24T12:30:17.668Z,62.85
2023-04-24T12:33:07.921Z,62.28
2023-04-24T12:35:54.875Z,62.27
2023-04-24T12:38:47.181Z,62.09
2023-04-24T12:41:35.092Z,62.61
2023-04-24T12:44:22.043Z,61.54
2023-04-24T12:47:09.530Z,62.29
2023-04-24T12:49:56.801Z,61.81
2023-04-24T12:52:44.826Z,61.31
2023-04-24T12:55:32.036Z,61.66
2023-04-24T12:58:19.107Z,60.85
2023-04-24T13:00:46.863Z,61.19
2023-04-24T13:03:14.517Z,61.84
2023-04-24T13:05:42.360Z,61.15
2023-04-24T13:08:09.531Z,60.66
2023-04-24T13:10:36.892Z,60.97
2023-04-24T13:13:04.771Z,60.11
2023-04-24T13:15:32.069Z,60.31
2023-04-24T13:17:59.188Z,59.94
2023-04-24T13:20:27.215Z,59.85
2023-04-24T13:22:54.190Z,61.15
2023-04-24T13:25:21.504Z,60.85
2023-04-24T13:27:48.548Z,59.78
2023-04-24T13:30:15.616Z,60.56
2023-04-24T13:32:42.594Z,60.70
2023-04-24T13:35:09.789Z,60.59
2023-04-24T13:37:36.799Z,60.33
2023-04-24T13:40:07.082Z,61.40
2023-04-24T13:42:34.478Z,61.20
2023-04-24T13:45:06.072Z,60.78
2023-04-24T13:47:42.281Z,60.56
2023-04-24T13:50:10.889Z,60.10
2023-04-24T13:52:37.847Z,61.04
2023-04-24T13:55:05.239Z,61.10
2023-04-24T13:57:32.579Z,60.81
2023-04-24T14:00:02.576Z,60.82
2023-04-24T14:02:34.245Z,60.81
2023-04-24T14:05:01.489Z,59.90
2023-04-24T14:07:29.282Z,60.42
2023-04-24T14:09:56.364Z,60.76
2023-04-24T14:12:23.556Z,59.48
2023-04-24T14:14:50.566Z,60.77
2023-04-24T14:17:17.526Z,60.66
2023-04-24T14:19:44.848Z,60.79
2023-04-24T14:22:11.798Z,59.36
2023-04-24T14:24:38.880Z,59.50
2023-04-24T14:27:05.902Z,60.58
2023-04-24T14:29:34.860Z,60.81
2023-04-24T14:32:02.396Z,60.28
2023-04-24T14:34:29.334Z,59.45
2023-04-24T14:36:56.619Z,60.28
2023-04-24T14:39:23.677Z,60.13
2023-04-24T14:41:50.803Z,59.51
2023-04-24T14:44:17.775Z,59.13
2023-04-24T14:46:45.163Z,59.26
2023-04-24T14:49:13.535Z,60.40
2023-04-24T14:51:40.534Z,59.94
2023-04-24T14:54:08.178Z,60.40
2023-04-24T14:56:35.544Z,60.40
2023-04-24T14:59:03.137Z,60.54
2023-04-24T15:01:30.658Z,60.50
2023-04-24T15:03:57.779Z,59.74
2023-04-24T15:06:25.950Z,60.40
2023-04-24T15:08:53.042Z,59.61
2023-04-24T15:11:19.986Z,59.56
2023-04-24T15:13:47.526Z,60.45
2023-04-24T15:16:15.448Z,59.52
2023-04-24T15:18:42.747Z,59.74
2023-04-24T15:21:09.765Z,60.55
2023-04-24T15:23:36.758Z,60.39
2023-04-24T15:26:23.570Z,58.83
2023-04-24T15:29:10.830Z,59.50
2023-04-24T15:31:58.070Z,59.60
2023-04-24T15:34:45.883Z,59.90
2023-04-24T15:37:32.928Z,59.92
2023-04-24T15:40:19.858Z,60.22
2023-04-24T15:43:06.886Z,60.31
2023-04-24T15:45:54.341Z,60.52
2023-04-24T15:48:41.421Z,60.32
2023-04-24T15:51:28.363Z,60.19
2023-04-24T15:54:15.595Z,60.28
2023-04-24T15:57:02.603Z,59.55
2023-04-24T15:59:49.971Z,59.08
2023-04-24T16:02:39.833Z,53.20
2023-04-24T16:05:27.507Z,55.52
2023-04-24T16:08:14.620Z,56.31
2023-04-24T16:11:02.010Z,56.76
2023-04-24T16:13:49.204Z,57.87
2023-04-24T16:16:36.159Z,58.39
2023-04-24T16:19:23.598Z,57.99
2023-04-24T16:22:10.542Z,57.13
2023-04-24T16:24:57.526Z,58.72
2023-04-24T16:27:45.552Z,58.19
2023-04-24T16:30:33.005Z,58.47
2023-04-24T16:33:20.007Z,58.25
2023-04-24T16:36:07.636Z,58.33
2023-04-24T16:38:55.281Z,58.51
2023-04-24T16:41:42.380Z,58.10
2023-04-24T16:44:29.733Z,57.51
2023-04-24T16:47:16.880Z,58.19
2023-04-24T16:50:03.790Z,58.49
2023-04-24T16:52:50.814Z,58.31
2023-04-24T16:55:37.904Z,58.33
2023-04-24T16:58:24.999Z,57.80
2023-04-24T17:01:11.939Z,57.98
2023-04-24T17:03:59.260Z,56.97
2023-04-24T17:06:46.258Z,56.83
2023-04-24T17:09:33.261Z,57.21
2023-04-24T17:12:20.146Z,58.23
2023-04-24T17:15:07.065Z,57.97
2023-04-24T17:17:54.012Z,57.11
2023-04-24T17:20:41.110Z,57.96
2023-04-24T17:23:28.118Z,57.51
2023-04-24T17:26:15.119Z,58.19
2023-04-24T17:29:02.065Z,57.20
2023-04-24T17:31:49.132Z,57.05
2023-04-24T17:34:36.168Z,57.59
2023-04-24T17:37:23.744Z,57.42
2023-04-24T17:40:10.666Z,57.69
2023-04-24T17:42:57.583Z,57.54
2023-04-24T17:45:44.472Z,58.22
2023-04-24T17:48:35.182Z,57.67
2023-04-24T17:51:21.976Z,58.47
2023-04-24T17:54:08.989Z,58.07
2023-04-24T17:56:56.163Z,57.60
2023-04-24T17:59:43.263Z,58.19
2023-04-24T18:02:30.100Z,58.31
2023-04-24T18:05:17.249Z,57.25
2023-04-24T18:08:04.126Z,57.90
2023-04-24T18:10:52.541Z,58.52
2023-04-24T18:13:39.410Z,58.03
2023-04-24T18:16:26.965Z,58.07
2023-04-24T18:19:13.755Z,57.92
2023-04-24T18:22:00.799Z,58.71
2023-04-24T18:24:47.666Z,58.21
2023-04-24T18:27:34.590Z,57.28
2023-04-24T18:30:21.690Z,57.53
2023-04-24T18:33:09.967Z,58.55
2023-04-24T18:35:58.035Z,57.63
2023-04-24T18:38:44.978Z,58.00
2023-04-24T18:41:31.941Z,58.61
2023-04-24T18:44:18.978Z,58.32
2023-04-24T18:47:05.988Z,58.33
2023-04-24T18:49:53.297Z,58.30
2023-04-24T18:52:40.150Z,59.26
2023-04-24T18:55:27.472Z,58.05
2023-04-24T18:58:14.425Z,58.35
2023-04-24T19:01:01.603Z,58.16
2023-04-24T19:03:48.727Z,59.22
2023-04-24T19:06:35.814Z,59.65
2023-04-24T19:09:23.164Z,59.43
2023-04-24T19:12:10.570Z,58.33
2023-04-24T19:14:57.406Z,59.26
2023-04-24T19:17:44.819Z,59.71
2023-04-24T19:20:32.001Z,59.00
2023-04-24T19:23:18.980Z,59.68
2023-04-24T19:26:05.816Z,59.93
2023-04-24T19:28:52.938Z,59.08
2023-04-24T19:31:39.967Z,59.62
2023-04-24T19:34:27.178Z,60.04
2023-04-24T19:37:14.056Z,59.38
2023-04-24T19:40:01.140Z,60.18
2023-04-24T19:42:48.048Z,59.58
2023-04-24T19:45:35.153Z,59.39
2023-04-24T19:48:22.394Z,60.18
2023-04-24T19:51:09.420Z,60.82
2023-04-24T19:53:56.344Z,60.08
2023-04-24T19:56:43.445Z,60.35
2023-04-24T19:59:31.023Z,61.33
2023-04-24T20:02:19.199Z,61.01
2023-04-24T20:05:06.367Z,61.60
2023-04-24T20:07:53.303Z,60.70
2023-04-24T20:10:40.092Z,61.63
2023-04-24T20:13:27.161Z,61.93
2023-04-24T20:16:14.119Z,61.74
2023-04-24T20:19:01.219Z,62.05
2023-04-24T20:21:48.612Z,61.63
2023-04-24T20:24:35.487Z,61.73
2023-04-24T20:27:22.450Z,61.75
2023-04-24T20:30:09.589Z,62.30
2023-04-24T20:32:56.693Z,61.41
2023-04-24T20:35:43.814Z,62.03
2023-04-24T20:38:30.668Z,62.43
2023-04-24T20:41:17.746Z,62.45
2023-04-24T20:44:04.563Z,61.59
2023-04-24T20:46:51.829Z,61.70
2023-04-24T20:49:38.867Z,61.79
2023-04-24T20:52:25.861Z,62.59
2023-04-24T20:55:12.637Z,61.97
2023-04-24T20:58:00.768Z,62.58
2023-04-24T21:00:49.170Z,62.63
2023-04-24T21:03:36.829Z,62.66
2023-04-24T21:06:24.102Z,62.99
2023-04-24T21:09:11.145Z,63.18
2023-04-24T21:11:57.985Z,62.47
2023-04-24T21:14:44.836Z,63.30
2023-04-24T21:17:31.818Z,62.77
2023-04-24T21:20:19.183Z,63.51
2023-04-24T21:23:06.044Z,63.64
2023-04-24T21:25:53.544Z,63.67
2023-04-24T21:28:40.390Z,63.31
2023-04-24T21:31:27.306Z,63.14
2023-04-24T21:34:14.128Z,63.63
2023-04-24T21:37:01.114Z,63.38
2023-04-24T21:39:47.902Z,63.97
2023-04-24T21:42:35.611Z,64.00
2023-04-24T21:45:22.591Z,64.09
2023-04-24T21:48:09.666Z,64.01
2023-04-24T21:50:56.639Z,63.96
2023-04-24T21:53:43.753Z,64.40
2023-04-24T21:56:30.797Z,64.63
2023-04-24T21:59:18.308Z,64.62
2023-04-24T22:02:05.262Z,64.27
2023-04-24T22:04:52.526Z,64.51
2023-04-24T22:07:39.475Z,64.69
2023-04-24T22:10:27.362Z,65.50
2023-04-24T22:13:14.267Z,65.16
2023-04-24T22:16:01.641Z,65.68
2023-04-24T22:18:48.456Z,65.82
2023-04-24T22:21:35.999Z,65.47
2023-04-24T22:24:22.948Z,65.04
2023-04-24T22:27:10.073Z,65.37
2023-04-24T22:29:57.029Z,66.11
2023-04-24T22:32:44.209Z,65.74
2023-04-24T22:35:31.056Z,65.96
2023-04-24T22:38:18.737Z,66.08
2023-04-24T22:41:05.582Z,66.36
2023-04-24T22:43:52.767Z,66.35
2023-04-24T22:46:39.616Z,66.13
2023-04-24T22:49:26.869Z,66.51
2023-04-24T22:52:13.802Z,66.14
2023-04-24T22:55:01.061Z,66.78
2023-04-24T22:57:48.111Z,66.31
2023-04-24T23:00:35.626Z,66.98
2023-04-24T23:03:22.897Z,66.47
2023-04-24T23:06:10.029Z,66.58
2023-04-24T23:08:57.003Z,66.64
2023-04-24T23:11:44.034Z,67.28
2023-04-24T23:14:30.902Z,66.84
2023-04-24T23:17:18.241Z,66.71
2023-04-24T23:20:05.394Z,66.92
2023-04-24T23:22:52.400Z,66.93
2023-04-24T23:25:39.275Z,67.29
2023-04-24T23:28:26.239Z,67.58
2023-04-24T23:31:13.069Z,67.75
2023-04-24T23:34:00.072Z,67.64
2023-04-24T23:36:47.174Z,67.68
2023-04-24T23:39:34.307Z,67.61
2023-04-24T23:42:21.201Z,67.48
2023-04-24T23:45:08.336Z,67.47
2023-04-24T23:47:55.165Z,67.55
2023-04-24T23:50:42.299Z,67.99
2023-04-24T23:53:29.634Z,68.03
2023-04-24T23:56:16.793Z,67.66
2023-04-24T23:59:03.689Z,67.81
